createdAt,value
2016-12-23T00:00:44.144Z,1018.81
2016-12-23T00:01:54.748Z,1018.88
2016-12-23T00:03:05.321Z,1018.95
2016-12-23T00:04:16.223Z,1018.99
2016-12-23T00:05:27.132Z,1019.02
2016-12-23T00:06:37.693Z,1019.02
2016-12-23T00:07:48.650Z,1019.05
2016-12-23T00:08:59.563Z,1018.98
2016-12-23T00:10:10.124Z,1018.97
2016-12-23T00:11:21.046Z,1018.84
2016-12-23T00:12:31.955Z,1018.79
2016-12-23T00:13:42.912Z,1018.72
2016-12-23T00:14:53.473Z,1018.79
2016-12-23T00:16:04.378Z,1018.86
2016-12-23T00:17:15.284Z,1018.96
2016-12-23T00:18:26.193Z,1018.99
2016-12-23T00:19:37.146Z,1019.05
2016-12-23T00:20:47.731Z,1019.08
2016-12-23T00:21:58.293Z,1019.06
2016-12-23T00:23:08.854Z,1019.02
2016-12-23T00:24:19.767Z,1019.04
2016-12-23T00:25:30.724Z,1019.07
2016-12-23T00:26:41.630Z,1019.12
2016-12-23T00:27:52.531Z,1019.13
2016-12-23T00:29:03.440Z,1019.15
2016-12-23T00:30:14.353Z,1019.2
2016-12-23T00:31:25.318Z,1019.24
2016-12-23T00:32:36.247Z,1019.38
2016-12-23T00:33:47.156Z,1019.41
2016-12-23T00:34:58.061Z,1019.43
2016-12-23T00:36:08.971Z,1019.52
2016-12-23T00:37:19.572Z,1019.58
2016-12-23T00:38:30.481Z,1019.73
2016-12-23T00:39:41.383Z,1019.78
2016-12-23T00:40:52.292Z,1019.83
2016-12-23T00:42:02.849Z,1019.94
2016-12-23T00:43:13.490Z,1019.98
2016-12-23T00:44:24.055Z,1019.92
2016-12-23T00:45:34.961Z,1019.82
2016-12-23T00:46:45.865Z,1019.76
2016-12-23T00:47:56.435Z,1019.76
2016-12-23T00:49:07.396Z,1019.71
2016-12-23T00:50:18.309Z,1019.85
2016-12-23T00:51:28.898Z,1019.91
2016-12-23T00:52:39.813Z,1019.88
2016-12-23T00:53:50.720Z,1019.91
2016-12-23T00:55:01.678Z,1019.96
2016-12-23T00:56:12.587Z,1019.98
2016-12-23T00:57:23.148Z,1019.94
2016-12-23T00:58:33.713Z,1019.92
2016-12-23T00:59:44.639Z,1019.9
2016-12-23T01:00:55.248Z,1019.93
2016-12-23T01:02:05.809Z,1019.97
2016-12-23T01:03:16.367Z,1019.98
2016-12-23T01:04:27.277Z,1019.99
2016-12-23T01:05:38.181Z,1020.01
2016-12-23T01:06:49.145Z,1020.06
2016-12-23T01:07:59.711Z,1020.1
2016-12-23T01:09:10.636Z,1020.12
2016-12-23T01:10:21.541Z,1020.1
2016-12-23T01:11:32.102Z,1020.17
2016-12-23T01:12:43.052Z,1020.11
2016-12-23T01:13:53.969Z,1020.12
2016-12-23T01:15:04.874Z,1020.13
2016-12-23T01:16:15.780Z,1020.15
2016-12-23T01:17:26.341Z,1020.16
2016-12-23T01:18:37.293Z,1020.1
2016-12-23T01:19:48.203Z,1020.13
2016-12-23T01:20:59.132Z,1020.09
2016-12-23T01:22:09.697Z,1020.1
2016-12-23T01:23:20.606Z,1020.14
2016-12-23T01:24:31.568Z,1020.08
2016-12-23T01:25:42.477Z,1020.06
2016-12-23T01:26:52.686Z,1020.04
2016-12-23T01:28:03.275Z,1020.05
2016-12-23T01:29:14.181Z,1020.06
2016-12-23T01:30:25.129Z,1020
2016-12-23T01:31:36.032Z,1020.01
2016-12-23T01:32:46.596Z,1020.06
2016-12-23T01:33:57.501Z,1020.08
2016-12-23T01:35:08.402Z,1020.15
2016-12-23T01:36:19.360Z,1020.22
2016-12-23T01:37:30.268Z,1020.24
2016-12-23T01:38:41.173Z,1020.27
2016-12-23T01:39:52.078Z,1020.24
2016-12-23T01:41:02.648Z,1020.22
2016-12-23T01:42:13.609Z,1020.2
2016-12-23T01:43:24.521Z,1020.23
2016-12-23T01:44:35.088Z,1020.22
2016-12-23T01:45:45.649Z,1020.16
2016-12-23T01:46:56.586Z,1020.13
2016-12-23T01:48:07.547Z,1020.13
2016-12-23T01:49:18.460Z,1020.12
2016-12-23T01:50:29.358Z,1020.14
2016-12-23T01:51:40.278Z,1020.17
2016-12-23T01:52:50.836Z,1020.18
2016-12-23T01:54:01.803Z,1020.18
2016-12-23T01:55:12.710Z,1020.22
2016-12-23T01:56:23.259Z,1020.21
2016-12-23T01:57:33.820Z,1020.21
2016-12-23T01:58:44.761Z,1020.2
2016-12-23T01:59:55.370Z,1020.18
2016-12-23T02:01:06.279Z,1020.2
2016-12-23T02:02:17.181Z,1020.19
2016-12-23T02:03:28.082Z,1020.16
2016-12-23T02:04:38.299Z,1020.12
2016-12-23T02:05:49.256Z,1020.16
2016-12-23T02:06:59.817Z,1020.23
2016-12-23T02:08:10.374Z,1020.28
2016-12-23T02:09:20.943Z,1020.3
2016-12-23T02:10:31.156Z,1020.28
2016-12-23T02:11:41.778Z,1020.3
2016-12-23T02:12:52.347Z,1020.32
2016-12-23T02:14:03.264Z,1020.34
2016-12-23T02:15:14.173Z,1020.31
2016-12-23T02:16:24.730Z,1020.25
2016-12-23T02:17:35.371Z,1020.24
2016-12-23T02:18:45.968Z,1020.19
2016-12-23T02:19:56.190Z,1020.15
2016-12-23T02:21:06.758Z,1020.15
2016-12-23T02:22:17.664Z,1020.13
2016-12-23T02:23:28.377Z,1020.06
2016-12-23T02:24:39.278Z,1020.09
2016-12-23T02:25:50.195Z,1020.05
2016-12-23T02:27:00.759Z,1020.07
2016-12-23T02:28:11.313Z,1020.04
2016-12-23T02:29:22.270Z,1020
2016-12-23T02:30:33.184Z,1020.03
2016-12-23T02:31:43.757Z,1020.05
2016-12-23T02:32:54.346Z,1020.08
2016-12-23T02:34:04.913Z,1020.08
2016-12-23T02:35:15.521Z,1020.02
2016-12-23T02:36:26.425Z,1020.04
2016-12-23T02:37:37.330Z,1020.03
2016-12-23T02:38:47.920Z,1020.05
2016-12-23T02:39:58.485Z,1020.03
2016-12-23T02:41:09.098Z,1020.1
2016-12-23T02:42:19.671Z,1020.05
2016-12-23T02:43:30.232Z,1020.03
2016-12-23T02:44:41.137Z,1020
2016-12-23T02:45:51.698Z,1020.04
2016-12-23T02:47:02.327Z,1019.95
2016-12-23T02:48:13.233Z,1019.99
2016-12-23T02:49:23.790Z,1020.03
2016-12-23T02:50:34.355Z,1020.03
2016-12-23T02:51:44.948Z,1020.03
2016-12-23T02:52:55.926Z,1020.01
2016-12-23T02:54:06.491Z,1019.99
2016-12-23T02:55:17.408Z,1019.99
2016-12-23T02:56:28.325Z,1020.03
2016-12-23T02:57:38.890Z,1020.02
2016-12-23T02:58:49.511Z,1020.05
2016-12-23T03:00:00.417Z,1020.04
2016-12-23T03:01:10.978Z,1020.03
2016-12-23T03:02:21.879Z,1020.08
2016-12-23T03:03:32.472Z,1020.07
2016-12-23T03:04:43.090Z,1020.1
2016-12-23T03:05:53.650Z,1020.08
2016-12-23T03:07:04.232Z,1020.09
2016-12-23T03:08:15.169Z,1020.12
2016-12-23T03:09:25.734Z,1020.12
2016-12-23T03:10:36.347Z,1020.12
2016-12-23T03:11:46.908Z,1020.16
2016-12-23T03:12:57.472Z,1020.16
2016-12-23T03:14:08.043Z,1020.16
2016-12-23T03:15:18.948Z,1020.1
2016-12-23T03:16:29.905Z,1020.16
2016-12-23T03:17:40.454Z,1020.16
2016-12-23T03:18:51.355Z,1020.15
2016-12-23T03:20:02.261Z,1020.19
2016-12-23T03:21:13.162Z,1020.18
2016-12-23T03:22:23.771Z,1020.22
2016-12-23T03:23:34.332Z,1020.21
2016-12-23T03:24:45.233Z,1020.19
2016-12-23T03:25:56.143Z,1020.17
2016-12-23T03:27:06.700Z,1020.2
2016-12-23T03:28:17.813Z,1020.23
2016-12-23T03:29:28.378Z,1020.18
2016-12-23T03:30:38.947Z,1020.21
2016-12-23T03:31:49.852Z,1020.22
2016-12-23T03:33:00.754Z,1020.2
2016-12-23T03:34:11.367Z,1020.17
2016-12-23T03:35:22.272Z,1020.17
2016-12-23T03:36:33.177Z,1020.13
2016-12-23T03:37:43.738Z,1020.13
2016-12-23T03:38:54.636Z,1020.12
2016-12-23T03:40:05.597Z,1020.11
2016-12-23T03:41:16.162Z,1020.17
2016-12-23T03:42:27.079Z,1020.2
2016-12-23T03:43:37.976Z,1020.2
2016-12-23T03:44:48.537Z,1020.24
2016-12-23T03:45:59.491Z,1020.29
2016-12-23T03:47:10.404Z,1020.36
2016-12-23T03:48:21.309Z,1020.34
2016-12-23T03:49:31.902Z,1020.29
2016-12-23T03:50:42.463Z,1020.28
2016-12-23T03:51:53.073Z,1020.28
2016-12-23T03:53:03.642Z,1020.34
2016-12-23T03:54:14.203Z,1020.33
2016-12-23T03:55:25.112Z,1020.31
2016-12-23T03:56:35.697Z,1020.27
2016-12-23T03:57:46.315Z,1020.29
2016-12-23T03:58:57.212Z,1020.22
2016-12-23T04:00:07.429Z,1020.24
2016-12-23T04:01:17.994Z,1020.18
2016-12-23T04:02:28.904Z,1020.16
2016-12-23T04:03:39.516Z,1020.17
2016-12-23T04:04:50.426Z,1020.17
2016-12-23T04:06:01.331Z,1020.14
2016-12-23T04:07:11.888Z,1020.18
2016-12-23T04:08:22.449Z,1020.16
2016-12-23T04:09:33.402Z,1020.14
2016-12-23T04:10:43.971Z,1020.14
2016-12-23T04:11:54.528Z,1020.2
2016-12-23T04:13:05.094Z,1020.22
2016-12-23T04:14:15.999Z,1020.28
2016-12-23T04:15:26.612Z,1020.29
2016-12-23T04:16:37.521Z,1020.25
2016-12-23T04:17:48.426Z,1020.24
2016-12-23T04:18:58.663Z,1020.2
2016-12-23T04:20:08.889Z,1020.15
2016-12-23T04:21:19.851Z,1020.2
2016-12-23T04:22:30.760Z,1020.22
2016-12-23T04:23:41.325Z,1020.22
2016-12-23T04:24:52.230Z,1020.25
2016-12-23T04:26:02.446Z,1020.2
2016-12-23T04:27:13.396Z,1020.2
2016-12-23T04:28:23.609Z,1020.23
2016-12-23T04:29:34.530Z,1020.27
2016-12-23T04:30:45.432Z,1020.26
2016-12-23T04:31:56.337Z,1020.25
2016-12-23T04:33:06.942Z,1020.26
2016-12-23T04:34:17.851Z,1020.24
2016-12-23T04:35:28.760Z,1020.22
2016-12-23T04:36:39.326Z,1020.18
2016-12-23T04:37:49.551Z,1020.08
2016-12-23T04:39:00.508Z,1020.14
2016-12-23T04:40:11.417Z,1020.07
2016-12-23T04:41:22.330Z,1020.09
2016-12-23T04:42:32.900Z,1020.08
2016-12-23T04:43:43.805Z,1020.06
2016-12-23T04:44:54.577Z,1020
2016-12-23T04:46:05.143Z,1020
2016-12-23T04:47:15.748Z,1019.99
2016-12-23T04:48:26.313Z,1019.96
2016-12-23T04:49:36.870Z,1019.96
2016-12-23T04:50:47.511Z,1019.94
2016-12-23T04:51:58.077Z,1019.91
2016-12-23T04:53:08.977Z,1019.93
2016-12-23T04:54:19.883Z,1019.91
2016-12-23T04:55:30.448Z,1019.96
2016-12-23T04:56:41.430Z,1019.94
2016-12-23T04:57:51.998Z,1019.97
2016-12-23T04:59:02.555Z,1019.93
2016-12-23T05:00:13.121Z,1019.85
2016-12-23T05:01:24.051Z,1019.88
2016-12-23T05:02:34.663Z,1019.92
2016-12-23T05:03:45.574Z,1019.91
2016-12-23T05:04:56.137Z,1019.96
2016-12-23T05:06:07.047Z,1019.94
2016-12-23T05:07:17.616Z,1020.01
2016-12-23T05:08:28.626Z,1020.01
2016-12-23T05:09:39.194Z,1020.01
2016-12-23T05:10:50.103Z,1020.08
2016-12-23T05:12:00.320Z,1020.09
2016-12-23T05:13:10.882Z,1020.09
2016-12-23T05:14:21.495Z,1020.12
2016-12-23T05:15:32.400Z,1020.15
2016-12-23T05:16:42.966Z,1020.12
2016-12-23T05:17:53.527Z,1020.08
2016-12-23T05:19:03.752Z,1020.08
2016-12-23T05:20:14.365Z,1020.1
2016-12-23T05:21:25.270Z,1020.11
2016-12-23T05:22:36.203Z,1020.17
2016-12-23T05:23:46.761Z,1020.08
2016-12-23T05:24:57.874Z,1020.06
2016-12-23T05:26:08.831Z,1020.03
2016-12-23T05:27:19.732Z,1020.07
2016-12-23T05:28:30.293Z,1020.12
2016-12-23T05:29:40.859Z,1020.13
2016-12-23T05:30:51.764Z,1020.17
2016-12-23T05:32:02.821Z,1020.21
2016-12-23T05:33:13.390Z,1020.21
2016-12-23T05:34:23.959Z,1020.24
2016-12-23T05:35:34.532Z,1020.17
2016-12-23T05:36:45.094Z,1020.18
2016-12-23T05:37:55.703Z,1020.12
2016-12-23T05:39:06.296Z,1020.16
2016-12-23T05:40:17.213Z,1020.2
2016-12-23T05:41:28.118Z,1020.2
2016-12-23T05:42:38.672Z,1020.23
2016-12-23T05:43:48.949Z,1020.14
2016-12-23T05:44:59.518Z,1020.15
2016-12-23T05:46:10.451Z,1020.14
2016-12-23T05:47:21.021Z,1020.13
2016-12-23T05:48:31.933Z,1020.1
2016-12-23T05:49:42.887Z,1020.1
2016-12-23T05:50:53.452Z,1020.11
2016-12-23T05:52:04.361Z,1020.1
2016-12-23T05:53:15.294Z,1020.11
2016-12-23T05:54:26.196Z,1020.07
2016-12-23T05:55:37.153Z,1020.04
2016-12-23T05:56:47.710Z,1019.98
2016-12-23T05:57:58.627Z,1020.03
2016-12-23T05:59:09.185Z,1019.99
2016-12-23T06:00:19.743Z,1019.99
2016-12-23T06:01:30.351Z,1020.06
2016-12-23T06:02:40.908Z,1020.07
2016-12-23T06:03:51.469Z,1020.07
2016-12-23T06:05:02.059Z,1020.08
2016-12-23T06:06:12.967Z,1020.08
2016-12-23T06:07:23.925Z,1020.03
2016-12-23T06:08:34.830Z,1020.11
2016-12-23T06:09:45.395Z,1020.13
2016-12-23T06:10:56.301Z,1020.19
2016-12-23T06:12:06.861Z,1020.18
2016-12-23T06:13:17.815Z,1020.22
2016-12-23T06:14:28.368Z,1020.24
2016-12-23T06:15:38.929Z,1020.27
2016-12-23T06:16:49.843Z,1020.28
2016-12-23T06:18:00.752Z,1020.26
2016-12-23T06:19:11.705Z,1020.26
2016-12-23T06:20:22.610Z,1020.3
2016-12-23T06:21:33.163Z,1020.34
2016-12-23T06:22:44.068Z,1020.35
2016-12-23T06:23:54.974Z,1020.38
2016-12-23T06:25:05.592Z,1020.36
2016-12-23T06:26:16.152Z,1020.38
2016-12-23T06:27:27.049Z,1020.38
2016-12-23T06:28:37.962Z,1020.37
2016-12-23T06:29:48.524Z,1020.37
2016-12-23T06:30:58.785Z,1020.36
2016-12-23T06:32:09.345Z,1020.38
2016-12-23T06:33:19.916Z,1020.34
2016-12-23T06:34:30.480Z,1020.35
2016-12-23T06:35:41.393Z,1020.36
2016-12-23T06:36:51.854Z,1020.41
2016-12-23T06:38:02.420Z,1020.42
2016-12-23T06:39:12.977Z,1020.47
2016-12-23T06:40:23.878Z,1020.41
2016-12-23T06:41:34.439Z,1020.45
2016-12-23T06:42:45.401Z,1020.5
2016-12-23T06:43:56.310Z,1020.47
2016-12-23T06:45:06.871Z,1020.41
2016-12-23T06:46:17.776Z,1020.52
2016-12-23T06:47:28.677Z,1020.49
2016-12-23T06:48:38.950Z,1020.55
2016-12-23T06:49:49.875Z,1020.57
2016-12-23T06:51:00.785Z,1020.54
2016-12-23T06:52:11.342Z,1020.53
2016-12-23T06:53:21.899Z,1020.56
2016-12-23T06:54:32.857Z,1020.5
2016-12-23T06:55:43.781Z,1020.53
2016-12-23T06:56:54.695Z,1020.54
2016-12-23T06:58:05.640Z,1020.54
2016-12-23T06:59:16.541Z,1020.58
2016-12-23T07:00:27.155Z,1020.54
2016-12-23T07:01:38.060Z,1020.6
2016-12-23T07:02:48.621Z,1020.59
2016-12-23T07:03:59.531Z,1020.65
2016-12-23T07:05:10.095Z,1020.59
2016-12-23T07:06:21.060Z,1020.66
2016-12-23T07:07:31.994Z,1020.66
2016-12-23T07:08:42.211Z,1020.68
2016-12-23T07:09:53.124Z,1020.65
2016-12-23T07:11:04.021Z,1020.7
2016-12-23T07:12:14.638Z,1020.71
2016-12-23T07:13:25.545Z,1020.75
2016-12-23T07:14:36.180Z,1020.83
2016-12-23T07:15:46.850Z,1020.79
2016-12-23T07:16:57.411Z,1020.8
2016-12-23T07:18:07.976Z,1020.76
2016-12-23T07:19:18.882Z,1020.76
2016-12-23T07:20:29.519Z,1020.75
2016-12-23T07:21:40.424Z,1020.72
2016-12-23T07:22:50.993Z,1020.72
2016-12-23T07:24:01.558Z,1020.72
2016-12-23T07:25:12.119Z,1020.7
2016-12-23T07:26:23.588Z,1020.73
2016-12-23T07:27:34.150Z,1020.74
2016-12-23T07:28:45.067Z,1020.76
2016-12-23T07:29:55.976Z,1020.75
2016-12-23T07:31:06.881Z,1020.7
2016-12-23T07:32:17.835Z,1020.76
2016-12-23T07:33:28.068Z,1020.7
2016-12-23T07:34:38.633Z,1020.71
2016-12-23T07:35:49.202Z,1020.68
2016-12-23T07:36:59.791Z,1020.66
2016-12-23T07:38:10.752Z,1020.7
2016-12-23T07:39:21.317Z,1020.76
2016-12-23T07:40:44.619Z,1020.78
2016-12-23T07:41:55.187Z,1020.78
2016-12-23T07:43:06.097Z,1020.83
2016-12-23T07:44:16.714Z,1020.83
2016-12-23T07:45:27.615Z,1020.86
2016-12-23T07:46:38.517Z,1020.89
2016-12-23T07:47:49.438Z,1020.94
2016-12-23T07:49:00.387Z,1020.95
2016-12-23T07:50:11.128Z,1021.02
2016-12-23T07:51:21.817Z,1021.06
2016-12-23T07:52:32.034Z,1021.04
2016-12-23T07:53:42.600Z,1021.11
2016-12-23T07:54:53.309Z,1021.14
2016-12-23T07:56:04.194Z,1021.14
2016-12-23T07:57:14.780Z,1021.14
2016-12-23T07:58:25.340Z,1021.16
2016-12-23T07:59:36.249Z,1021.16
2016-12-23T08:00:46.863Z,1021.15
2016-12-23T08:01:57.424Z,1021.1
2016-12-23T08:03:08.353Z,1021.08
2016-12-23T08:04:18.925Z,1021.09
2016-12-23T08:05:29.496Z,1021.11
2016-12-23T08:06:40.454Z,1021.03
2016-12-23T08:07:51.366Z,1021.02
2016-12-23T08:09:02.275Z,1021.05
2016-12-23T08:10:13.180Z,1021.01
2016-12-23T08:11:23.749Z,1021.02
2016-12-23T08:12:34.562Z,1021.02
2016-12-23T08:13:45.468Z,1020.99
2016-12-23T08:14:56.041Z,1021.04
2016-12-23T08:16:06.250Z,1021.02
2016-12-23T08:17:16.819Z,1021.01
2016-12-23T08:18:27.448Z,1021.02
2016-12-23T08:19:38.353Z,1021
2016-12-23T08:20:48.910Z,1020.99
2016-12-23T08:21:59.481Z,1021.04
2016-12-23T08:23:10.044Z,1021.02
2016-12-23T08:24:20.705Z,1021
2016-12-23T08:25:31.270Z,1021.04
2016-12-23T08:26:42.179Z,1021.01
2016-12-23T08:27:53.112Z,1021.04
2016-12-23T08:29:03.673Z,1021.06
2016-12-23T08:30:14.626Z,1021.09
2016-12-23T08:31:25.187Z,1021.1
2016-12-23T08:32:35.416Z,1021.1
2016-12-23T08:33:45.981Z,1021.11
2016-12-23T08:34:56.882Z,1021.17
2016-12-23T08:36:07.831Z,1021.19
2016-12-23T08:37:18.392Z,1021.14
2016-12-23T08:38:28.614Z,1021.16
2016-12-23T08:39:39.170Z,1021.15
2016-12-23T08:40:50.080Z,1021.16
2016-12-23T08:42:01.041Z,1021.15
2016-12-23T08:43:11.254Z,1021.16
2016-12-23T08:44:21.835Z,1021.22
2016-12-23T08:45:32.400Z,1021.19
2016-12-23T08:46:42.957Z,1021.22
2016-12-23T08:47:54.014Z,1021.16
2016-12-23T08:49:04.589Z,1021.13
2016-12-23T08:50:15.509Z,1021.18
2016-12-23T08:51:26.410Z,1021.17
2016-12-23T08:52:36.975Z,1021.16
2016-12-23T08:53:47.592Z,1021.17
2016-12-23T08:54:58.505Z,1021.2
2016-12-23T08:56:09.423Z,1021.17
2016-12-23T08:57:19.983Z,1021.23
2016-12-23T08:58:30.889Z,1021.23
2016-12-23T08:59:41.165Z,1021.25
2016-12-23T09:00:51.727Z,1021.24
2016-12-23T09:02:02.640Z,1021.22
2016-12-23T09:03:13.549Z,1021.26
2016-12-23T09:04:24.110Z,1021.26
2016-12-23T09:05:34.724Z,1021.31
2016-12-23T09:06:45.285Z,1021.29
2016-12-23T09:07:56.194Z,1021.3
2016-12-23T09:09:06.763Z,1021.28
2016-12-23T09:10:17.668Z,1021.37
2016-12-23T09:11:28.625Z,1021.33
2016-12-23T09:12:39.186Z,1021.3
2016-12-23T09:13:50.091Z,1021.26
2016-12-23T09:15:00.997Z,1021.28
2016-12-23T09:16:11.566Z,1021.3
2016-12-23T09:17:21.863Z,1021.26
2016-12-23T09:18:32.444Z,1021.28
2016-12-23T09:19:43.005Z,1021.34
2016-12-23T09:20:53.570Z,1021.35
2016-12-23T09:22:04.311Z,1021.35
2016-12-23T09:23:15.557Z,1021.32
2016-12-23T09:24:26.470Z,1021.35
2016-12-23T09:25:37.407Z,1021.37
2016-12-23T09:26:47.981Z,1021.34
2016-12-23T09:27:58.537Z,1021.32
2016-12-23T09:29:09.143Z,1021.33
2016-12-23T09:30:19.356Z,1021.32
2016-12-23T09:31:30.277Z,1021.34
2016-12-23T09:32:41.190Z,1021.35
2016-12-23T09:33:52.107Z,1021.36
2016-12-23T09:35:03.069Z,1021.38
2016-12-23T09:36:13.982Z,1021.33
2016-12-23T09:37:24.891Z,1021.38
2016-12-23T09:38:35.800Z,1021.43
2016-12-23T09:39:46.362Z,1021.41
2016-12-23T09:40:57.316Z,1021.41
2016-12-23T09:42:07.884Z,1021.45
2016-12-23T09:43:18.469Z,1021.49
2016-12-23T09:44:29.406Z,1021.47
2016-12-23T09:45:40.315Z,1021.45
2016-12-23T09:46:50.933Z,1021.43
2016-12-23T09:48:01.842Z,1021.44
2016-12-23T09:49:12.203Z,1021.51
2016-12-23T09:50:23.100Z,1021.51
2016-12-23T09:51:34.014Z,1021.56
2016-12-23T09:52:44.975Z,1021.58
2016-12-23T09:53:55.904Z,1021.58
2016-12-23T09:55:06.817Z,1021.58
2016-12-23T09:56:17.374Z,1021.63
2016-12-23T09:57:28.284Z,1021.59
2016-12-23T09:58:39.240Z,1021.6
2016-12-23T09:59:49.802Z,1021.59
2016-12-23T10:01:00.367Z,1021.56
2016-12-23T10:02:10.940Z,1021.48
2016-12-23T10:03:21.845Z,1021.54
2016-12-23T10:04:32.406Z,1021.51
2016-12-23T10:05:42.976Z,1021.53
2016-12-23T10:06:53.541Z,1021.51
2016-12-23T10:08:04.455Z,1021.51
2016-12-23T10:09:15.411Z,1021.46
2016-12-23T10:10:26.329Z,1021.49
2016-12-23T10:11:37.238Z,1021.53
2016-12-23T10:12:48.171Z,1021.52
2016-12-23T10:13:59.084Z,1021.5
2016-12-23T10:15:09.698Z,1021.5
2016-12-23T10:16:20.275Z,1021.5
2016-12-23T10:17:30.840Z,1021.53
2016-12-23T10:18:41.417Z,1021.5
2016-12-23T10:19:52.331Z,1021.5
2016-12-23T10:21:03.284Z,1021.48
2016-12-23T10:22:13.869Z,1021.41
2016-12-23T10:23:24.438Z,1021.4
2016-12-23T10:24:34.996Z,1021.45
2016-12-23T10:25:45.909Z,1021.49
2016-12-23T10:26:56.884Z,1021.48
2016-12-23T10:28:07.791Z,1021.47
2016-12-23T10:29:18.704Z,1021.47
2016-12-23T10:30:29.622Z,1021.45
2016-12-23T10:31:40.187Z,1021.44
2016-12-23T10:32:50.796Z,1021.4
2016-12-23T10:34:01.361Z,1021.37
2016-12-23T10:35:12.266Z,1021.42
2016-12-23T10:36:23.168Z,1021.4
2016-12-23T10:37:33.729Z,1021.4
2016-12-23T10:38:44.682Z,1021.42
2016-12-23T10:39:55.587Z,1021.4
2016-12-23T10:41:06.148Z,1021.43
2016-12-23T10:42:17.058Z,1021.46
2016-12-23T10:43:27.963Z,1021.5
2016-12-23T10:44:38.684Z,1021.49
2016-12-23T10:45:49.589Z,1021.45
2016-12-23T10:47:00.151Z,1021.44
2016-12-23T10:48:11.048Z,1021.45
2016-12-23T10:49:21.618Z,1021.48
2016-12-23T10:50:32.602Z,1021.43
2016-12-23T10:51:43.164Z,1021.39
2016-12-23T10:52:54.069Z,1021.41
2016-12-23T10:54:04.638Z,1021.42
2016-12-23T10:55:14.854Z,1021.38
2016-12-23T10:56:25.473Z,1021.39
2016-12-23T10:57:36.069Z,1021.34
2016-12-23T10:58:46.635Z,1021.33
2016-12-23T11:00:04.413Z,1021.27
2016-12-23T11:01:15.317Z,1021.22
2016-12-23T11:02:26.283Z,1021.21
2016-12-23T11:03:37.196Z,1021.25
2016-12-23T11:04:48.113Z,1021.17
2016-12-23T11:05:58.683Z,1021.13
2016-12-23T11:07:08.960Z,1021.12
2016-12-23T11:08:19.545Z,1021.11
2016-12-23T11:09:30.118Z,1021.1
2016-12-23T11:10:40.343Z,1021.09
2016-12-23T11:11:50.909Z,1021.06
2016-12-23T11:13:01.306Z,1021.04
2016-12-23T11:14:11.871Z,1021.03
2016-12-23T11:15:22.780Z,1020.95
2016-12-23T11:16:33.685Z,1020.93
2016-12-23T11:17:44.254Z,1020.96
2016-12-23T11:18:54.868Z,1020.89
2016-12-23T11:20:05.777Z,1020.89
2016-12-23T11:21:16.690Z,1020.91
2016-12-23T11:22:27.608Z,1020.92
2016-12-23T11:23:38.181Z,1020.93
2016-12-23T11:24:49.149Z,1020.88
2016-12-23T11:25:59.707Z,1020.87
2016-12-23T11:27:10.616Z,1020.83
2016-12-23T11:28:21.182Z,1020.81
2016-12-23T11:29:32.099Z,1020.83
2016-12-23T11:30:43.084Z,1020.85
2016-12-23T11:31:53.653Z,1020.84
2016-12-23T11:33:04.562Z,1020.81
2016-12-23T11:34:15.471Z,1020.86
2016-12-23T11:35:26.405Z,1020.85
2016-12-23T11:36:37.370Z,1020.85
2016-12-23T11:37:47.939Z,1020.83
2016-12-23T11:38:58.505Z,1020.83
2016-12-23T11:40:09.069Z,1020.73
2016-12-23T11:41:19.983Z,1020.78
2016-12-23T11:42:31.088Z,1020.69
2016-12-23T11:43:41.653Z,1020.79
2016-12-23T11:44:52.559Z,1020.77
2016-12-23T11:46:03.124Z,1020.79
2016-12-23T11:47:13.692Z,1020.78
2016-12-23T11:48:24.658Z,1020.77
2016-12-23T11:49:35.227Z,1020.78
2016-12-23T11:50:45.801Z,1020.78
2016-12-23T11:51:56.366Z,1020.68
2016-12-23T11:53:07.275Z,1020.7
2016-12-23T11:54:17.544Z,1020.69
2016-12-23T11:55:28.461Z,1020.69
2016-12-23T11:56:39.398Z,1020.66
2016-12-23T11:57:49.964Z,1020.68
2016-12-23T11:59:00.879Z,1020.65
2016-12-23T12:00:11.550Z,1020.66
2016-12-23T12:01:22.471Z,1020.61
2016-12-23T12:02:33.040Z,1020.6
2016-12-23T12:03:43.294Z,1020.57
2016-12-23T12:04:53.515Z,1020.55
2016-12-23T12:06:04.476Z,1020.49
2016-12-23T12:07:15.393Z,1020.5
2016-12-23T12:08:26.306Z,1020.48
2016-12-23T12:09:36.871Z,1020.46
2016-12-23T12:10:47.440Z,1020.47
2016-12-23T12:11:58.202Z,1020.41
2016-12-23T12:13:08.427Z,1020.35
2016-12-23T12:14:19.340Z,1020.35
2016-12-23T12:15:29.905Z,1020.32
2016-12-23T12:16:40.467Z,1020.36
2016-12-23T12:17:51.576Z,1020.29
2016-12-23T12:19:01.797Z,1020.28
2016-12-23T12:20:12.358Z,1020.25
2016-12-23T12:21:22.940Z,1020.24
2016-12-23T12:22:33.858Z,1020.23
2016-12-23T12:23:44.474Z,1020.2
2016-12-23T12:24:55.383Z,1020.21
2016-12-23T12:26:05.948Z,1020.15
2016-12-23T12:27:16.862Z,1020.19
2016-12-23T12:28:27.436Z,1020.14
2016-12-23T12:29:38.056Z,1020.12
2016-12-23T12:30:48.617Z,1020.09
2016-12-23T12:31:59.186Z,1020.03
2016-12-23T12:33:09.751Z,1020.04
2016-12-23T12:34:20.660Z,1020.02
2016-12-23T12:35:30.938Z,1019.99
2016-12-23T12:36:41.159Z,1019.99
2016-12-23T12:37:51.720Z,1019.95
2016-12-23T12:39:02.657Z,1019.91
2016-12-23T12:40:13.223Z,1019.85
2016-12-23T12:41:24.217Z,1019.85
2016-12-23T12:42:34.789Z,1019.8
2016-12-23T12:43:45.703Z,1019.76
2016-12-23T12:44:56.644Z,1019.76
2016-12-23T12:46:07.209Z,1019.73
2016-12-23T12:47:17.826Z,1019.75
2016-12-23T12:48:28.391Z,1019.72
2016-12-23T12:49:39.300Z,1019.71
2016-12-23T12:50:50.213Z,1019.67
2016-12-23T12:52:00.775Z,1019.67
2016-12-23T12:53:11.734Z,1019.62
2016-12-23T12:54:22.333Z,1019.65
2016-12-23T12:55:33.262Z,1019.65
2016-12-23T12:56:44.175Z,1019.59
2016-12-23T12:57:54.392Z,1019.6
2016-12-23T12:59:05.010Z,1019.57
2016-12-23T13:00:15.915Z,1019.55
2016-12-23T13:01:26.480Z,1019.51
2016-12-23T13:02:37.385Z,1019.49
2016-12-23T13:03:47.979Z,1019.51
2016-12-23T13:04:58.944Z,1019.47
2016-12-23T13:06:09.877Z,1019.48
2016-12-23T13:07:20.438Z,1019.47
2016-12-23T13:08:31.013Z,1019.5
2016-12-23T13:09:41.916Z,1019.51
2016-12-23T13:10:52.538Z,1019.48
2016-12-23T13:12:03.471Z,1019.46
2016-12-23T13:13:14.376Z,1019.49
2016-12-23T13:14:24.941Z,1019.47
2016-12-23T13:15:35.849Z,1019.45
2016-12-23T13:16:46.463Z,1019.39
2016-12-23T13:17:57.373Z,1019.39
2016-12-23T13:19:08.285Z,1019.28
2016-12-23T13:20:19.187Z,1019.27
2016-12-23T13:21:29.748Z,1019.28
2016-12-23T13:22:40.373Z,1019.31
2016-12-23T13:23:50.950Z,1019.28
2016-12-23T13:25:01.855Z,1019.27
2016-12-23T13:26:12.773Z,1019.3
2016-12-23T13:27:23.690Z,1019.26
2016-12-23T13:28:34.655Z,1019.23
2016-12-23T13:29:45.216Z,1019.21
2016-12-23T13:30:55.781Z,1019.22
2016-12-23T13:32:06.690Z,1019.21
2016-12-23T13:33:17.256Z,1019.21
2016-12-23T13:34:28.225Z,1019.2
2016-12-23T13:35:39.154Z,1019.16
2016-12-23T13:36:49.732Z,1019.14
2016-12-23T13:38:00.645Z,1019.16
2016-12-23T13:39:11.209Z,1019.18
2016-12-23T13:40:21.827Z,1019.16
2016-12-23T13:41:32.404Z,1019.12
2016-12-23T13:42:43.309Z,1019.16
2016-12-23T13:43:54.222Z,1019.15
2016-12-23T13:45:08.168Z,1019.15
2016-12-23T13:46:18.789Z,1019.13
2016-12-23T13:47:29.362Z,1019.08
2016-12-23T13:48:39.959Z,1019.08
2016-12-23T13:49:50.872Z,1019.04
2016-12-23T13:51:01.785Z,1019.04
2016-12-23T13:52:12.771Z,1018.99
2016-12-23T13:53:23.332Z,1019.01
2016-12-23T13:54:33.901Z,1019.02
2016-12-23T13:55:44.474Z,1019.02
2016-12-23T13:56:55.044Z,1018.99
2016-12-23T13:58:05.709Z,1018.98
2016-12-23T13:59:15.930Z,1018.96
2016-12-23T14:00:26.491Z,1018.95
2016-12-23T14:01:37.396Z,1018.92
2016-12-23T14:02:47.961Z,1018.82
2016-12-23T14:03:58.574Z,1018.82
2016-12-23T14:05:09.135Z,1018.83
2016-12-23T14:06:19.697Z,1018.88
2016-12-23T14:07:30.602Z,1018.86
2016-12-23T14:08:41.175Z,1018.86
2016-12-23T14:09:52.136Z,1018.86
2016-12-23T14:11:03.045Z,1018.81
2016-12-23T14:12:13.626Z,1018.81
2016-12-23T14:13:24.188Z,1018.81
2016-12-23T14:14:35.101Z,1018.78
2016-12-23T14:15:46.058Z,1018.73
2016-12-23T14:16:56.627Z,1018.74
2016-12-23T14:18:07.192Z,1018.71
2016-12-23T14:19:18.137Z,1018.77